Flight Track Log - Related Links

Times and Time Zones

All times are in EDT time to prevent confusion due to time zone crossing. See the N738LM flight status page for this flight to view local times or setup timezone preferences in your user account.

Time Position Orientation Groundspeed Altitude Reporting Facility
EDT Latitude Longitude Course Direction KTS MPH feet Rate Location/Type
Tue 09:51:17 AM 26.6308 -80.1000 225° Southwest 79 91 1,600  Level Miami Center
Tue 09:52:19 AM 26.6122 -80.1158 217° Southwest 79 91 2,000 341 Climbing Miami Center
Tue 09:53:20 AM 26.5961 -80.1314 221° Southwest 79 91 2,300 341 Climbing Miami Center
Tue 09:54:00 AM 26.5036 -80.2252 219° Southwest  Level FlightAware Approximate
Tue 09:54:22 AM 26.5803 -80.1472 222° Southwest 78 90 2,700  Level Miami Center
Tue 09:55:00 AM 26.4759 -80.2501 219° Southwest  Level FlightAware Approximate
Tue 09:55:23 AM 26.5633 -80.1661 225° Southwest 78 90 3,000  Level Miami Center
Tue 09:56:25 AM 26.5472 -80.1811 220° Southwest 78 90 3,300 293 Climbing Miami Center
Tue 09:57:26 AM 26.5300 -80.1956 217° Southwest 78 90 3,600 341 Climbing Miami Center
Tue 09:58:28 AM 26.5125 -80.2117 219° Southwest 78 90 4,000 341 Climbing Miami Center
Tue 09:59:29 AM 26.4953 -80.2264 217° Southwest 77 89 4,300 279 Climbing Miami Center
Tue 09:59:54 AM 26.4886 -80.2325 219° Southwest 77 89 4,400 194 Climbing Miami Center
Tue 10:00:31 AM 26.4797 -80.2436 228° Southwest 78 90 4,500 218 Climbing Miami Center
Tue 10:00:49 AM 26.4750 -80.2500 230° Southwest 82 94 4,600 97 Climbing Miami Center
Tue 10:01:33 AM 26.4589 -80.2653 220° Southwest 93 107 4,600  Level Miami Center
Tue 10:01:56 AM 26.4503 -80.2761 228° Southwest 102 117 4,600  Level Miami Center
Tue 10:02:34 AM 26.4383 -80.2883 222° Southwest 99 114 4,600  Level Miami Center
Tue 10:02:45 AM 26.4344 -80.2933 229° Southwest 107 123 4,600  Level Miami Center
Tue 10:03:36 AM 26.4150 -80.3131 222° Southwest 103 119 4,600  Level Miami Center
Tue 10:04:38 AM 26.3950 -80.3358 226° Southwest 103 119 4,600  Level Miami Center
Tue 10:05:40 AM 26.3731 -80.3583 223° Southwest 104 120 4,600  Level Miami Center
Tue 10:06:41 AM 26.3492 -80.3833 223° Southwest 105 121 4,600  Level Miami Center
Tue 10:07:43 AM 26.3278 -80.4050 222° Southwest 105 121 4,600  Level Miami Center
Tue 10:08:45 AM 26.3039 -80.4289 222° Southwest 105 121 4,600  Level Miami Center
Tue 10:09:47 AM 26.2800 -80.4478 215° Southwest 105 121 4,600  Level Miami Center
Tue 10:10:48 AM 26.2569 -80.4678 218° Southwest 105 121 4,600  Level Miami Center
Tue 10:11:04 AM 26.2492 -80.4742 216° Southwest 108 124 4,600  Level Miami Center
Tue 10:11:50 AM 26.2336 -80.4867 216° Southwest 106 122 4,600  Level Miami Center
Tue 10:12:52 AM 26.2089 -80.5058 215° Southwest 106 122 4,600  Level Miami Center
Tue 10:13:54 AM 26.1856 -80.5272 219° Southwest 106 122 4,600  Level Miami Center
Tue 10:14:56 AM 26.1592 -80.5531 221° Southwest 106 122 4,600  Level Miami Center
Tue 10:15:57 AM 26.1381 -80.5750 223° Southwest 106 122 4,600  Level Miami Center
Tue 10:16:59 AM 26.1178 -80.5986 226° Southwest 106 122 4,600  Level Miami Center
Tue 10:18:01 AM 26.0972 -80.6214 225° Southwest 106 122 4,600  Level Miami Center
Tue 10:19:06 AM 26.0742 -80.6506 229° Southwest 106 122 4,600  Level Miami Center
Tue 10:20:01 AM 26.0519 -80.6719 221° Southwest 107 123 4,600  Level Miami Center
Tue 10:21:02 AM 26.0297 -80.6911 218° Southwest 108 124 4,600  Level Miami Center
Tue 10:22:03 AM 26.0014 -80.7072 207° Southwest 106 122 4,600  Level Miami Center
Tue 10:23:10 AM 25.9711 -80.7211 202° Southwest 107 123 4,600  Level Miami Center
Tue 10:24:12 AM 25.9461 -80.7344 206° Southwest 107 123 4,600  Level Miami Center
Tue 10:25:13 AM 25.9147 -80.7489 202° Southwest 106 122 4,600  Level Miami Center
Tue 10:26:08 AM 25.8911 -80.7608 204° Southwest 104 120 4,600  Level Miami Center
Tue 10:27:03 AM 25.8650 -80.7750 206° Southwest 110 127 4,600  Level Miami Center
Tue 10:27:17 AM 25.8661 -80.7753 347° North 106 122 4,600  Level Miami Center
Tue 10:28:04 AM 25.8386 -80.7914 208° Southwest 110 127 4,600 -97 Level Miami Center
Tue 10:28:19 AM 25.8339 -80.7953 217° Southwest 107 123 4,500 -90 Descending Miami Center
Tue 10:29:11 AM 25.8122 -80.8122 215° Southwest 110 127 4,500  Level Miami Center
Tue 10:29:21 AM 25.8100 -80.8144 222° Southwest 108 124 4,500 83 Level Miami Center
Tue 10:30:23 AM 25.7872 -80.8353 219° Southwest 108 124 4,600 49 Climbing Miami Center
Tue 10:31:24 AM 25.7669 -80.8561 223° Southwest 105 121 4,600  Level Miami Center
Tue 10:32:26 AM 25.7439 -80.8783 221° Southwest 107 123 4,600  Level Miami Center
Tue 10:33:28 AM 25.7211 -80.8975 217° Southwest 106 122 4,600  Level Miami Center
Tue 10:34:30 AM 25.6894 -80.9175 210° Southwest 106 122 4,600  Level Miami Center
Tue 10:35:31 AM 25.6642 -80.9367 214° Southwest 112 129 4,600  Level Miami Center
Tue 10:36:33 AM 25.6411 -80.9572 219° Southwest 111 128 4,600  Level Miami Center
Tue 10:37:35 AM 25.6194 -80.9808 224° Southwest 109 125 4,600 -49 Level Miami Center
Tue 10:38:36 AM 25.5994 -81.0069 230° Southwest 110 127 4,500  Descending Miami Center
Tue 10:39:38 AM 25.5794 -81.0325 229° Southwest 110 127 4,600 48 Climbing Miami Center
Tue 10:40:40 AM 25.5583 -81.0558 225° Southwest 108 124 4,600 -48 Level Miami Center
Tue 10:41:42 AM 25.5331 -81.0853 226° Southwest 108 124 4,500  Descending Miami Center
Tue 10:43:45 AM 25.4933 -81.1353 210° Southwest 109 125 4,600  Climbing Miami Center
Tue 10:44:47 AM 25.4725 -81.1611 228° Southwest 109 125 4,500  Descending Miami Center
Tue 10:45:49 AM 25.4528 -81.1858 229° Southwest 110 127 4,600  Climbing Miami Center
Tue 10:46:51 AM 25.4331 -81.2100 228° Southwest 109 125 4,500  Descending Miami Center
Tue 10:47:53 AM 25.4064 -81.2386 224° Southwest 109 125 4,600 48 Climbing Miami Center
Tue 10:48:55 AM 25.3842 -81.2617 223° Southwest 109 125 4,600  Level Miami Center
Tue 10:49:56 AM 25.3628 -81.2853 225° Southwest 109 125 4,600  Level Miami Center
Tue 10:50:58 AM 25.3422 -81.3086 226° Southwest 109 125 4,600  Level Miami Center
Tue 10:52:00 AM 25.3203 -81.3328 225° Southwest 109 125 4,600 -48 Level Miami Center
Tue 10:53:02 AM 25.2997 -81.3558 225° Southwest 109 125 4,500  Descending Miami Center
Tue 10:54:04 AM 25.2739 -81.3839 224° Southwest 109 125 4,600 48 Climbing Miami Center
Tue 10:55:06 AM 25.2514 -81.4042 219° Southwest 108 124 4,600 -48 Level Miami Center
Tue 10:56:08 AM 25.2283 -81.4250 219° Southwest 108 124 4,500  Descending Miami Center
Tue 10:57:10 AM 25.2053 -81.4456 219° Southwest 108 124 4,600 48 Climbing Miami Center
Tue 10:58:12 AM 25.1792 -81.4550 198° South 102 117 4,600  Level Miami Center
Tue 10:59:14 AM 25.1533 -81.4689 206° Southwest 101 116 4,600 -49 Level Miami Center
Tue 11:00:15 AM 25.1225 -81.4853 206° Southwest 101 116 4,500 -49 Descending Miami Center
Tue 11:01:17 AM 25.0958 -81.4986 204° Southwest 102 117 4,500  Level Miami Center
Tue 11:02:19 AM 25.0717 -81.5114 206° Southwest 101 116 4,500  Level Miami Center
Tue 11:03:24 AM 25.0481 -81.5272 211° Southwest 101 116 4,500  Level Miami Center
Tue 11:04:23 AM 25.0250 -81.5453 215° Southwest 101 116 4,500  Level Miami Center
Tue 11:05:25 AM 25.0017 -81.5594 209° Southwest 100 115 4,500 48 Level Miami Center
Tue 11:06:27 AM 24.9717 -81.5736 203° Southwest 99 114 4,600 48 Climbing Miami Center
Tue 11:07:29 AM 24.9467 -81.5836 200° South 99 114 4,600  Level Miami Center
Tue 11:08:31 AM 24.9197 -81.5939 199° South 99 114 4,600  Level Miami Center
Tue 11:09:33 AM 24.8919 -81.6044 199° South 100 115 4,600 -97 Level Miami Center
Tue 11:10:35 AM 24.8656 -81.6150 200° South 100 115 4,400 -242 Descending Miami Center
Tue 11:11:37 AM 24.8369 -81.6294 205° Southwest 107 123 4,100 -290 Descending Miami Center
Tue 11:12:39 AM 24.8019 -81.6492 207° Southwest 112 129 3,800 -288 Descending Miami Center
Tue 11:13:42 AM 24.7747 -81.6686 213° Southwest 115 132 3,500 -240 Descending Miami Center
Tue 11:14:44 AM 24.7469 -81.6875 212° Southwest 115 132 3,300 -145 Descending Miami Center
Tue 11:15:46 AM 24.7217 -81.7094 218° Southwest 115 132 3,200 -97 Descending Miami Center
Tue 11:16:48 AM 24.7031 -81.7372 234° Southwest 115 132 3,100 -145 Descending Miami Center
Tue 11:17:50 AM 24.6775 -81.7675 227° Southwest 115 132 2,900 -290 Descending Miami Center
Tue 11:18:52 AM 24.6528 -81.7919 222° Southwest 116 133 2,500 -484 Descending Miami Center
Tue 11:19:54 AM 24.6214 -81.7903 177° South 115 132 1,900 -581 Descending Miami Center
Tue 11:20:56 AM 24.5914 -81.7894 179° South 113 130 1,300 -581 Descending Miami Center
Tue 11:21:58 AM 24.5683 -81.7906 183° South 101 116 700 -532 Descending Miami Center
Tue 11:23:00 AM 24.5556 -81.7742 131° Southeast 79 91 200 -290 Descending Miami Center
Tue 11:24:02 AM 24.5547 -81.7506 92° East 79 91 100 -97 Descending Miami Center

Login

Don't have an account? Register now (free) for customized features, flight alerts, and more!